Time;durP1;ratioP1;P1;durP2;ratioP2;P2;SDS_P1;SDS_P2;PMS_P1;PMS_P2;Temp;Humidity;BMP_temperature;BMP_pressure;BME280_temperature;BME280_humidity;BME280_pressure;Samples;Min_cycle;Max_cycle;Signal;HPM_P1;HPM_P2
2022/08/01 08:58:37;;;;;;;2.25;1.80;;;22.20;54.90;;;;;;6153008;22;1525728;-87
2022/08/01 09:01:06;;;;;;;1.80;1.70;;;22.20;54.90;;;;;;6167342;23;20627;-90
2022/08/01 09:03:34;;;;;;;2.10;1.90;;;22.30;54.80;;;;;;6165492;23;20229;-89
2022/08/01 09:06:07;;;;;;;1.90;1.80;;;22.40;54.30;;;;;;6165298;23;20206;-91
2022/08/01 09:08:38;;;;;;;1.90;1.80;;;22.30;54.50;;;;;;6166344;23;20142;-90
2022/08/01 09:11:04;;;;;;;2.17;1.98;;;22.20;54.50;;;;;;6166574;23;20146;-90
2022/08/01 09:13:29;;;;;;;1.95;1.85;;;22.20;54.70;;;;;;6165285;23;20142;-90
2022/08/01 09:15:58;;;;;;;1.90;1.80;;;22.20;54.80;;;;;;6190862;23;20138;-89
2022/08/01 09:18:33;;;;;;;1.90;1.80;;;22.20;54.70;;;;;;6164699;23;20188;-90
2022/08/01 09:21:09;;;;;;;2.42;1.77;;;22.20;54.90;;;;;;6130108;23;20151;-88
2022/08/01 09:23:39;;;;;;;1.90;1.80;;;22.30;54.90;;;;;;6131755;23;20147;-91
2022/08/01 09:26:06;;;;;;;2.25;2.05;;;22.30;54.90;;;;;;6132574;23;20163;-91
2022/08/01 09:28:35;;;;;;;1.83;1.73;;;22.30;54.80;;;;;;6107531;23;20475;-89
2022/08/01 09:31:09;;;;;;;2.42;1.75;;;22.30;54.80;;;;;;6131924;23;20224;-92
2022/08/01 09:33:56;;;;;;;1.98;1.80;;;22.30;54.70;;;;;;6131507;23;20150;-90
2022/08/01 09:36:24;;;;;;;1.90;1.80;;;22.20;54.80;;;;;;6132211;23;20625;-92
2022/08/01 09:38:50;;;;;;;2.30;2.10;;;22.20;54.80;;;;;;6107259;23;20144;-90
2022/08/01 09:41:21;;;;;;;2.28;2.08;;;22.30;54.80;;;;;;6131499;23;20151;-90
2022/08/01 09:43:50;;;;;;;1.88;1.77;;;22.30;54.60;;;;;;6097472;23;20230;-91
2022/08/01 09:46:24;;;;;;;2.67;2.00;;;22.30;54.50;;;;;;6073284;23;20183;-88
2022/08/01 09:49:05;;;;;;;2.03;1.92;;;22.30;54.50;;;;;;6073738;23;20242;-91
2022/08/01 09:51:37;;;;;;;1.80;1.70;;;22.30;54.80;;;;;;6107658;23;20187;-88
2022/08/01 09:54:07;;;;;;;2.20;2.00;;;22.40;54.70;;;;;;6102472;23;20148;-90
2022/08/01 09:56:41;;;;;;;1.90;1.80;;;22.30;54.80;;;;;;6102001;23;20159;-93
2022/08/01 09:59:08;;;;;;;1.92;1.75;;;22.40;54.60;;;;;;6072448;23;20204;-90
2022/08/01 10:01:45;;;;;;;1.80;1.70;;;22.40;54.60;;;;;;6073000;23;20149;-92
2022/08/01 10:04:15;;;;;;;1.98;1.88;;;22.40;54.40;;;;;;6044593;23;20188;-91
2022/08/01 10:06:52;;;;;;;2.03;1.88;;;22.40;54.40;;;;;;6045177;23;20184;-91
2022/08/01 10:09:30;;;;;;;1.85;1.75;;;22.50;54.60;;;;;;6044272;23;20240;-90
2022/08/01 10:11:58;;;;;;;1.90;1.80;;;22.50;54.60;;;;;;6044227;23;20137;-92
2022/08/01 10:14:25;;;;;;;1.95;1.85;;;22.50;54.40;;;;;;6072119;23;20234;-90
2022/08/01 10:16:53;;;;;;;1.88;1.77;;;22.50;54.40;;;;;;6105367;23;20231;-90
2022/08/01 10:19:22;;;;;;;1.90;1.80;;;22.60;54.20;;;;;;6130319;23;20235;-91
2022/08/01 10:21:52;;;;;;;1.90;1.80;;;22.60;53.90;;;;;;6105624;23;20223;-88
2022/08/01 10:24:19;;;;;;;2.55;2.00;;;22.60;53.80;;;;;;6106228;23;20155;-89
2022/08/01 10:26:47;;;;;;;1.80;1.70;;;22.60;53.70;;;;;;6105598;23;20506;-92
2022/08/01 10:29:18;;;;;;;3.05;1.90;;;22.60;54.00;;;;;;6106248;23;20583;-90
2022/08/01 10:31:49;;;;;;;2.10;1.67;;;22.70;54.20;;;;;;6106541;23;20143;-90
2022/08/01 10:34:17;;;;;;;1.70;1.60;;;22.70;53.90;;;;;;6110526;23;20143;-89
2022/08/01 10:36:43;;;;;;;2.17;1.92;;;22.70;53.70;;;;;;6136493;23;20139;-91
2022/08/01 10:39:12;;;;;;;2.03;1.90;;;22.80;53.70;;;;;;6135458;23;20364;-91
2022/08/01 10:41:42;;;;;;;2.17;1.98;;;22.80;53.60;;;;;;6136630;23;20143;-90
2022/08/01 10:44:12;;;;;;;1.90;1.80;;;22.70;53.70;;;;;;6100697;23;20203;-91
2022/08/01 10:46:39;;;;;;;1.60;1.50;;;22.70;53.90;;;;;;6100139;23;20259;-89
2022/08/01 10:49:13;;;;;;;2.00;1.80;;;22.60;54.00;;;;;;6100748;23;20156;-92
2022/08/01 10:51:39;;;;;;;1.80;1.70;;;22.70;53.90;;;;;;6100221;23;20152;-89
2022/08/01 10:54:13;;;;;;;1.90;1.80;;;22.70;53.90;;;;;;6100091;23;20152;-89
2022/08/01 10:56:49;;;;;;;2.47;1.90;;;22.70;53.70;;;;;;6077088;23;20159;-91
2022/08/01 10:59:24;;;;;;;2.00;1.90;;;22.70;53.80;;;;;;6104772;23;20198;-92
2022/08/01 11:02:09;;;;;;;1.90;1.80;;;22.70;54.60;;;;;;6128457;23;20155;-90
2022/08/01 11:05:00;;;;;;;1.95;1.80;;;22.70;54.00;;;;;;6154986;23;20218;-91
2022/08/01 11:07:42;;;;;;;1.80;1.70;;;22.60;54.00;;;;;;6126341;23;20240;-91
2022/08/01 11:10:32;;;;;;;2.60;1.70;;;22.70;53.90;;;;;;6129654;23;20162;-91
2022/08/01 11:13:03;;;;;;;2.03;1.90;;;22.70;53.80;;;;;;6126315;23;20496;-90
2022/08/01 11:15:30;;;;;;;1.58;1.48;;;22.80;53.80;;;;;;6129359;23;20151;-92
2022/08/01 11:18:33;;;;;;;1.90;1.80;;;22.80;53.60;;;;;;6106147;23;20238;-89
2022/08/01 11:21:03;;;;;;;1.80;1.70;;;22.80;53.60;;;;;;6154794;23;20213;-89
2022/08/01 11:23:34;;;;;;;2.10;1.95;;;22.80;53.60;;;;;;6105021;23;20158;-89
2022/08/01 11:26:25;;;;;;;1.85;1.75;;;22.90;53.60;;;;;;6130233;23;20139;-90
2022/08/01 11:29:32;;;;;;;2.13;1.92;;;22.70;53.70;;;;;;6160974;23;20222;-89
2022/08/01 11:32:23;;;;;;;1.90;1.80;;;22.80;53.60;;;;;;6100247;23;20183;-90
2022/08/01 11:34:58;;;;;;;2.67;1.88;;;22.80;53.70;;;;;;6124507;23;20155;-90
2022/08/01 11:37:35;;;;;;;1.90;1.70;;;22.80;53.70;;;;;;6072791;23;20152;-90
2022/08/01 11:40:20;;;;;;;2.30;2.10;;;22.80;53.80;;;;;;6046070;23;20235;-89
2022/08/01 11:43:02;;;;;;;1.80;1.70;;;22.90;53.60;;;;;;6047915;23;20152;-90
2022/08/01 11:45:56;;;;;;;2.10;1.90;;;22.90;53.50;;;;;;6050014;23;20200;-90
2022/08/01 11:48:31;;;;;;;2.05;1.95;;;22.90;53.40;;;;;;6048117;23;20164;-90
2022/08/01 11:51:19;;;;;;;;;;;;;;;;;;;;;
2022/08/01 11:53:49;;;;;;;2.10;2.00;;;22.90;53.30;;;;;;5991483;23;20232;-89
2022/08/01 11:56:31;;;;;;;2.05;1.52;;;22.90;53.30;;;;;;5990674;23;20157;-91
2022/08/01 11:59:08;;;;;;;2.78;2.10;;;22.90;53.50;;;;;;6013674;23;20284;-90
2022/08/01 12:02:35;;;;;;;;;;;;;;;;;;;;;
2022/08/01 12:05:40;;;;;;;2.20;2.00;;;22.80;53.60;;;;;;5899576;24;20244;-87
2022/08/01 12:09:27;;;;;;;2.63;1.95;;;22.80;53.70;;;;;;5886136;24;20219;-88
2022/08/01 12:12:20;;;;;;;;;;;;;;;;;;;;;
2022/08/01 12:18:39;;;;;;;2.00;1.85;;;22.90;53.50;;;;;;5844199;24;20158;-88
2022/08/01 12:21:27;;;;;;;2.67;2.13;;;22.90;53.60;;;;;;5817521;24;20497;-87
2022/08/01 12:24:02;;;;;;;2.10;1.90;;;22.90;53.60;;;;;;5827991;24;20583;-90
2022/08/01 12:26:45;;;;;;;1.92;1.77;;;22.90;53.90;;;;;;5817177;24;20566;-90
2022/08/01 12:29:35;;;;;;;2.00;1.90;;;22.80;53.80;;;;;;5839334;24;20533;-89
2022/08/01 12:32:03;;;;;;;2.35;2.15;;;22.80;53.90;;;;;;5807810;24;20187;-88
2022/08/01 12:34:39;;;;;;;3.25;1.70;;;22.80;53.80;;;;;;5757007;24;20575;-89
2022/08/01 12:37:10;;;;;;;2.42;2.00;;;22.90;53.70;;;;;;5683935;25;20190;-90
2022/08/01 12:39:40;;;;;;;2.35;1.88;;;22.90;53.20;;;;;;5683719;25;20171;-88
2022/08/01 12:46:05;;;;;;;1.73;1.63;;;22.90;53.20;;;;;;5688641;25;20167;-91
2022/08/01 12:48:45;;;;;;;2.72;1.73;;;22.90;53.20;;;;;;5621757;25;20176;-89
2022/08/01 12:51:12;;;;;;;1.92;1.80;;;22.90;53.20;;;;;;5604684;25;20647;-92
2022/08/01 12:54:35;;;;;;;1.80;1.70;;;23.00;53.20;;;;;;5572046;25;20244;-90
2022/08/01 12:57:59;;;;;;;1.50;1.40;;;22.90;53.10;;;;;;5538260;25;20317;-90
2022/08/01 13:04:52;;;;;;;;;;;;;;;;;;;;;
2022/08/01 13:22:01;;;;;;;1.90;1.80;;;23.20;52.40;;;;;;5594438;25;20177;-91
2022/08/01 13:24:32;;;;;;;1.88;1.77;;;23.20;53.10;;;;;;5616397;25;20169;-91
2022/08/01 13:27:24;;;;;;;2.08;1.95;;;23.20;52.00;;;;;;5617869;25;20264;-90
2022/08/01 13:37:03;;;;;;;2.05;1.77;;;23.20;51.90;;;;;;5667201;25;20641;-90
2022/08/01 13:39:44;;;;;;;1.92;1.73;;;23.30;51.50;;;;;;5634761;25;20662;-91
2022/08/01 13:42:14;;;;;;;1.90;1.80;;;23.30;51.40;;;;;;5588353;25;20174;-91
2022/08/01 13:44:51;;;;;;;2.15;1.90;;;23.30;51.40;;;;;;5615797;25;20515;-90
2022/08/01 13:47:31;;;;;;;2.10;1.90;;;23.30;51.60;;;;;;5614296;25;20349;-90
2022/08/01 13:50:27;;;;;;;1.90;1.75;;;23.30;51.40;;;;;;5639832;25;20211;-91
2022/08/01 13:52:53;;;;;;;2.20;1.80;;;23.30;51.40;;;;;;5641618;25;20213;-91
2022/08/01 13:55:21;;;;;;;2.10;1.90;;;23.20;51.60;;;;;;5727697;24;20192;-91
2022/08/01 13:57:54;;;;;;;1.83;1.73;;;23.20;51.60;;;;;;5767492;24;20168;-90
2022/08/01 14:00:26;;;;;;;2.15;1.95;;;23.20;51.60;;;;;;5782064;24;20588;-90
2022/08/01 14:03:09;;;;;;;1.75;1.65;;;23.20;51.40;;;;;;5777380;24;20164;-90
2022/08/01 14:05:48;;;;;;;2.15;2.00;;;23.30;51.20;;;;;;5807091;24;20167;-91
2022/08/01 14:08:19;;;;;;;1.83;1.70;;;23.30;51.30;;;;;;5710849;25;20207;-90
2022/08/01 14:10:57;;;;;;;1.80;1.70;;;23.30;50.90;;;;;;5704267;25;20173;-88
2022/08/01 14:13:38;;;;;;;1.98;1.80;;;23.30;50.80;;;;;;5743436;24;20168;-90
2022/08/01 14:16:30;;;;;;;2.22;1.45;;;23.20;50.90;;;;;;5774653;24;20163;-89
2022/08/01 14:19:01;;;;;;;1.55;1.45;;;23.20;50.90;;;;;;5775064;24;20203;-90
2022/08/01 14:21:36;;;;;;;2.10;2.00;;;23.10;50.60;;;;;;5842526;24;20164;-90
2022/08/01 14:24:26;;;;;;;2.60;1.70;;;23.20;51.00;;;;;;5819964;24;20167;-91
2022/08/01 14:27:05;;;;;;;1.77;1.67;;;23.20;51.00;;;;;;5814458;24;20267;-90
2022/08/01 14:29:31;;;;;;;9.57;2.78;;;23.10;51.10;;;;;;5815646;24;20564;-90
2022/08/01 14:32:12;;;;;;;10.15;2.28;;;23.10;51.20;;;;;;5880898;24;20157;-90
2022/08/01 14:34:47;;;;;;;2.75;1.70;;;23.10;51.00;;;;;;5903995;24;20258;-90
2022/08/01 14:37:23;;;;;;;3.05;1.85;;;23.10;50.80;;;;;;5914340;24;20166;-90
2022/08/01 14:39:51;;;;;;;3.80;1.85;;;23.10;50.80;;;;;;5956277;24;20159;-89
2022/08/01 14:42:19;;;;;;;1.92;1.60;;;23.10;50.70;;;;;;5985363;24;20163;-89
2022/08/01 14:44:51;;;;;;;2.60;1.98;;;23.10;50.50;;;;;;6007788;23;20214;-91
2022/08/01 14:47:20;;;;;;;2.10;1.70;;;23.20;50.30;;;;;;5981375;24;20521;-89
2022/08/01 14:49:54;;;;;;;2.58;1.80;;;23.20;50.20;;;;;;5956888;24;20164;-90
2022/08/01 14:52:38;;;;;;;3.65;2.13;;;23.20;50.20;;;;;;5982246;24;20147;-89
2022/08/01 14:55:13;;;;;;;1.80;1.70;;;23.30;50.00;;;;;;6040951;23;20153;-89
2022/08/01 14:58:08;;;;;;;1.75;1.60;;;23.30;50.10;;;;;;6017677;23;20185;-89
